sensor_id;sensor_type;location;lat;lon;timestamp;temperature;humidity
21744;DHT22;11034;48.556;9.342;2023-04-24T00:01:43;10.90;99.90
21744;DHT22;11034;48.556;9.342;2023-04-24T00:04:11;10.90;99.90
21744;DHT22;11034;48.556;9.342;2023-04-24T00:06:41;10.90;99.90
21744;DHT22;11034;48.556;9.342;2023-04-24T00:09:10;10.90;99.90
21744;DHT22;11034;48.556;9.342;2023-04-24T00:11:38;10.90;99.90
21744;DHT22;11034;48.556;9.342;2023-04-24T00:14:07;10.90;99.90
21744;DHT22;11034;48.556;9.342;2023-04-24T00:16:35;10.90;99.90
21744;DHT22;11034;48.556;9.342;2023-04-24T00:19:03;10.90;99.90
21744;DHT22;11034;48.556;9.342;2023-04-24T00:21:32;10.80;99.90
21744;DHT22;11034;48.556;9.342;2023-04-24T00:24:00;10.80;99.90
21744;DHT22;11034;48.556;9.342;2023-04-24T00:26:28;10.90;99.90
21744;DHT22;11034;48.556;9.342;2023-04-24T00:28:56;10.90;99.90
21744;DHT22;11034;48.556;9.342;2023-04-24T00:31:26;10.90;99.90
21744;DHT22;11034;48.556;9.342;2023-04-24T00:33:54;10.90;99.90
21744;DHT22;11034;48.556;9.342;2023-04-24T00:36:22;10.90;99.90
21744;DHT22;11034;48.556;9.342;2023-04-24T00:38:50;10.80;99.90
21744;DHT22;11034;48.556;9.342;2023-04-24T00:41:18;10.90;99.90
21744;DHT22;11034;48.556;9.342;2023-04-24T00:43:46;10.90;99.90
21744;DHT22;11034;48.556;9.342;2023-04-24T00:46:14;11.00;99.90
21744;DHT22;11034;48.556;9.342;2023-04-24T00:48:45;11.00;99.90
21744;DHT22;11034;48.556;9.342;2023-04-24T00:51:13;11.00;99.90
21744;DHT22;11034;48.556;9.342;2023-04-24T00:53:41;11.00;99.90
21744;DHT22;11034;48.556;9.342;2023-04-24T00:56:09;11.00;99.90
21744;DHT22;11034;48.556;9.342;2023-04-24T00:58:37;10.90;99.90
21744;DHT22;11034;48.556;9.342;2023-04-24T01:01:06;10.90;99.90
21744;DHT22;11034;48.556;9.342;2023-04-24T01:03:34;10.90;99.90
21744;DHT22;11034;48.556;9.342;2023-04-24T01:06:06;10.90;99.90
21744;DHT22;11034;48.556;9.342;2023-04-24T01:08:36;10.80;99.90
21744;DHT22;11034;48.556;9.342;2023-04-24T01:11:04;10.80;99.90
21744;DHT22;11034;48.556;9.342;2023-04-24T01:13:33;10.70;99.90
21744;DHT22;11034;48.556;9.342;2023-04-24T01:16:02;10.50;99.90
21744;DHT22;11034;48.556;9.342;2023-04-24T01:18:30;10.50;99.90
21744;DHT22;11034;48.556;9.342;2023-04-24T01:21:00;10.40;99.90
21744;DHT22;11034;48.556;9.342;2023-04-24T01:23:31;10.40;99.90
21744;DHT22;11034;48.556;9.342;2023-04-24T01:25:59;10.40;99.90
21744;DHT22;11034;48.556;9.342;2023-04-24T01:28:27;10.20;99.90
21744;DHT22;11034;48.556;9.342;2023-04-24T01:30:55;10.20;99.90
21744;DHT22;11034;48.556;9.342;2023-04-24T01:33:24;10.50;99.90
21744;DHT22;11034;48.556;9.342;2023-04-24T01:35:52;10.50;99.90
21744;DHT22;11034;48.556;9.342;2023-04-24T01:38:20;10.50;99.90
21744;DHT22;11034;48.556;9.342;2023-04-24T01:40:49;10.50;99.90
21744;DHT22;11034;48.556;9.342;2023-04-24T01:43:18;10.40;99.90
21744;DHT22;11034;48.556;9.342;2023-04-24T01:45:46;10.40;99.90
21744;DHT22;11034;48.556;9.342;2023-04-24T01:48:13;10.30;99.90
21744;DHT22;11034;48.556;9.342;2023-04-24T01:50:42;10.20;99.90
21744;DHT22;11034;48.556;9.342;2023-04-24T01:53:09;10.10;99.90
21744;DHT22;11034;48.556;9.342;2023-04-24T01:55:38;10.00;99.90
21744;DHT22;11034;48.556;9.342;2023-04-24T01:58:07;9.90;99.90
21744;DHT22;11034;48.556;9.342;2023-04-24T02:00:35;9.80;99.90
21744;DHT22;11034;48.556;9.342;2023-04-24T02:03:03;9.70;99.90
21744;DHT22;11034;48.556;9.342;2023-04-24T02:05:32;9.50;99.90
21744;DHT22;11034;48.556;9.342;2023-04-24T02:08:00;9.40;99.90
21744;DHT22;11034;48.556;9.342;2023-04-24T02:10:28;9.40;99.90
21744;DHT22;11034;48.556;9.342;2023-04-24T02:12:57;9.40;99.90
21744;DHT22;11034;48.556;9.342;2023-04-24T02:15:27;9.50;99.90
21744;DHT22;11034;48.556;9.342;2023-04-24T02:17:56;9.50;99.90
21744;DHT22;11034;48.556;9.342;2023-04-24T02:20:24;9.60;99.90
21744;DHT22;11034;48.556;9.342;2023-04-24T02:22:52;9.60;99.90
21744;DHT22;11034;48.556;9.342;2023-04-24T02:25:20;9.70;99.90
21744;DHT22;11034;48.556;9.342;2023-04-24T02:27:49;9.80;99.90
21744;DHT22;11034;48.556;9.342;2023-04-24T02:30:17;9.80;99.90
21744;DHT22;11034;48.556;9.342;2023-04-24T02:32:46;9.90;99.90
21744;DHT22;11034;48.556;9.342;2023-04-24T02:35:14;9.90;99.90
21744;DHT22;11034;48.556;9.342;2023-04-24T02:37:42;9.90;99.90
21744;DHT22;11034;48.556;9.342;2023-04-24T02:40:11;9.80;99.90
21744;DHT22;11034;48.556;9.342;2023-04-24T02:42:39;9.80;99.90
21744;DHT22;11034;48.556;9.342;2023-04-24T02:45:07;9.70;99.90
21744;DHT22;11034;48.556;9.342;2023-04-24T02:47:35;9.60;99.90
21744;DHT22;11034;48.556;9.342;2023-04-24T02:50:06;9.60;99.90
21744;DHT22;11034;48.556;9.342;2023-04-24T02:52:35;9.60;99.90
21744;DHT22;11034;48.556;9.342;2023-04-24T02:55:03;9.60;99.90
21744;DHT22;11034;48.556;9.342;2023-04-24T02:57:31;9.60;99.90
21744;DHT22;11034;48.556;9.342;2023-04-24T02:59:59;9.60;99.90
21744;DHT22;11034;48.556;9.342;2023-04-24T03:02:27;9.60;99.90
21744;DHT22;11034;48.556;9.342;2023-04-24T03:04:55;9.70;99.90
21744;DHT22;11034;48.556;9.342;2023-04-24T03:07:25;9.70;99.90
21744;DHT22;11034;48.556;9.342;2023-04-24T03:09:53;9.70;99.90
21744;DHT22;11034;48.556;9.342;2023-04-24T03:12:21;9.70;99.90
21744;DHT22;11034;48.556;9.342;2023-04-24T03:14:50;9.70;99.90
21744;DHT22;11034;48.556;9.342;2023-04-24T03:17:18;9.70;99.90
21744;DHT22;11034;48.556;9.342;2023-04-24T03:19:46;9.70;99.90
21744;DHT22;11034;48.556;9.342;2023-04-24T03:22:14;9.70;99.90
21744;DHT22;11034;48.556;9.342;2023-04-24T03:24:43;9.80;99.90
21744;DHT22;11034;48.556;9.342;2023-04-24T03:27:11;9.90;99.90
21744;DHT22;11034;48.556;9.342;2023-04-24T03:29:39;9.80;99.90
21744;DHT22;11034;48.556;9.342;2023-04-24T03:32:07;9.70;99.90
21744;DHT22;11034;48.556;9.342;2023-04-24T03:34:35;9.70;99.90
21744;DHT22;11034;48.556;9.342;2023-04-24T03:37:03;9.70;99.90
21744;DHT22;11034;48.556;9.342;2023-04-24T03:39:31;9.50;99.90
21744;DHT22;11034;48.556;9.342;2023-04-24T03:42:00;9.40;99.90
21744;DHT22;11034;48.556;9.342;2023-04-24T03:44:29;9.20;99.90
21744;DHT22;11034;48.556;9.342;2023-04-24T03:46:58;9.10;99.90
21744;DHT22;11034;48.556;9.342;2023-04-24T03:49:26;9.10;99.90
21744;DHT22;11034;48.556;9.342;2023-04-24T03:51:54;9.00;99.90
21744;DHT22;11034;48.556;9.342;2023-04-24T03:54:22;9.00;99.90
21744;DHT22;11034;48.556;9.342;2023-04-24T03:56:49;8.90;99.90
21744;DHT22;11034;48.556;9.342;2023-04-24T03:59:19;8.90;99.90
21744;DHT22;11034;48.556;9.342;2023-04-24T04:01:47;8.90;99.90
21744;DHT22;11034;48.556;9.342;2023-04-24T04:04:15;8.80;99.90
21744;DHT22;11034;48.556;9.342;2023-04-24T04:06:43;8.80;99.90
21744;DHT22;11034;48.556;9.342;2023-04-24T04:09:13;8.70;99.90
21744;DHT22;11034;48.556;9.342;2023-04-24T04:11:41;8.60;99.90
21744;DHT22;11034;48.556;9.342;2023-04-24T04:14:09;8.60;99.90
21744;DHT22;11034;48.556;9.342;2023-04-24T04:16:38;8.60;99.90
21744;DHT22;11034;48.556;9.342;2023-04-24T04:19:06;8.60;99.90
21744;DHT22;11034;48.556;9.342;2023-04-24T04:21:35;8.50;99.90
21744;DHT22;11034;48.556;9.342;2023-04-24T04:24:02;8.60;99.90
21744;DHT22;11034;48.556;9.342;2023-04-24T04:26:32;8.60;99.90
21744;DHT22;11034;48.556;9.342;2023-04-24T04:29:00;8.60;99.90
21744;DHT22;11034;48.556;9.342;2023-04-24T04:31:28;8.60;99.90
21744;DHT22;11034;48.556;9.342;2023-04-24T04:33:58;8.70;99.90
21744;DHT22;11034;48.556;9.342;2023-04-24T04:36:28;8.80;99.90
21744;DHT22;11034;48.556;9.342;2023-04-24T04:38:57;8.80;99.90
21744;DHT22;11034;48.556;9.342;2023-04-24T04:41:26;8.90;99.90
21744;DHT22;11034;48.556;9.342;2023-04-24T04:43:53;8.90;99.90
21744;DHT22;11034;48.556;9.342;2023-04-24T04:46:25;8.90;99.90
21744;DHT22;11034;48.556;9.342;2023-04-24T04:48:53;9.00;99.90
21744;DHT22;11034;48.556;9.342;2023-04-24T04:51:24;9.00;99.90
21744;DHT22;11034;48.556;9.342;2023-04-24T04:53:52;9.00;99.90
21744;DHT22;11034;48.556;9.342;2023-04-24T04:56:20;9.10;99.90
21744;DHT22;11034;48.556;9.342;2023-04-24T04:58:49;9.10;99.90
21744;DHT22;11034;48.556;9.342;2023-04-24T05:01:16;9.20;99.90
21744;DHT22;11034;48.556;9.342;2023-04-24T05:03:45;9.20;99.90
21744;DHT22;11034;48.556;9.342;2023-04-24T05:06:13;9.00;99.90
21744;DHT22;11034;48.556;9.342;2023-04-24T05:08:43;8.90;99.90
21744;DHT22;11034;48.556;9.342;2023-04-24T05:11:11;8.70;99.90
21744;DHT22;11034;48.556;9.342;2023-04-24T05:13:39;8.50;99.90
21744;DHT22;11034;48.556;9.342;2023-04-24T05:16:08;8.40;99.90
21744;DHT22;11034;48.556;9.342;2023-04-24T05:18:36;8.40;99.90
21744;DHT22;11034;48.556;9.342;2023-04-24T05:21:04;8.40;99.90
21744;DHT22;11034;48.556;9.342;2023-04-24T05:23:32;8.30;99.90
21744;DHT22;11034;48.556;9.342;2023-04-24T05:26:02;8.30;99.90
21744;DHT22;11034;48.556;9.342;2023-04-24T05:28:33;8.30;99.90
21744;DHT22;11034;48.556;9.342;2023-04-24T05:31:03;8.30;99.90
21744;DHT22;11034;48.556;9.342;2023-04-24T05:33:31;8.30;99.90
21744;DHT22;11034;48.556;9.342;2023-04-24T05:35:59;8.30;99.90
21744;DHT22;11034;48.556;9.342;2023-04-24T05:38:27;8.30;99.90
21744;DHT22;11034;48.556;9.342;2023-04-24T05:40:55;8.20;99.90
21744;DHT22;11034;48.556;9.342;2023-04-24T05:43:24;8.20;99.90
21744;DHT22;11034;48.556;9.342;2023-04-24T05:45:52;8.30;99.90
21744;DHT22;11034;48.556;9.342;2023-04-24T05:48:21;8.20;99.90
21744;DHT22;11034;48.556;9.342;2023-04-24T05:50:50;8.20;99.90
21744;DHT22;11034;48.556;9.342;2023-04-24T05:53:19;8.30;99.90
21744;DHT22;11034;48.556;9.342;2023-04-24T05:55:47;8.30;99.90
21744;DHT22;11034;48.556;9.342;2023-04-24T05:58:15;8.20;99.90
21744;DHT22;11034;48.556;9.342;2023-04-24T06:00:45;8.20;99.90
21744;DHT22;11034;48.556;9.342;2023-04-24T06:03:14;8.30;99.90
21744;DHT22;11034;48.556;9.342;2023-04-24T06:05:43;8.30;99.90
21744;DHT22;11034;48.556;9.342;2023-04-24T06:08:11;8.40;99.90
21744;DHT22;11034;48.556;9.342;2023-04-24T06:10:39;8.40;99.90
21744;DHT22;11034;48.556;9.342;2023-04-24T06:13:07;8.50;99.90
21744;DHT22;11034;48.556;9.342;2023-04-24T06:15:35;8.60;99.90
21744;DHT22;11034;48.556;9.342;2023-04-24T06:18:04;8.60;99.90
21744;DHT22;11034;48.556;9.342;2023-04-24T06:20:32;8.70;99.90
21744;DHT22;11034;48.556;9.342;2023-04-24T06:23:00;8.70;99.90
21744;DHT22;11034;48.556;9.342;2023-04-24T06:25:28;8.90;99.90
21744;DHT22;11034;48.556;9.342;2023-04-24T06:27:57;8.80;99.90
21744;DHT22;11034;48.556;9.342;2023-04-24T06:30:25;8.80;99.90
21744;DHT22;11034;48.556;9.342;2023-04-24T06:32:53;9.10;99.90
21744;DHT22;11034;48.556;9.342;2023-04-24T06:35:33;10.10;99.90
21744;DHT22;11034;48.556;9.342;2023-04-24T06:38:01;11.50;99.90
21744;DHT22;11034;48.556;9.342;2023-04-24T06:40:29;12.60;99.90
21744;DHT22;11034;48.556;9.342;2023-04-24T06:42:57;13.00;99.90
21744;DHT22;11034;48.556;9.342;2023-04-24T06:45:26;13.70;99.90
21744;DHT22;11034;48.556;9.342;2023-04-24T06:47:54;14.70;99.90
21744;DHT22;11034;48.556;9.342;2023-04-24T06:50:22;15.20;99.90
21744;DHT22;11034;48.556;9.342;2023-04-24T06:52:52;15.50;99.90
21744;DHT22;11034;48.556;9.342;2023-04-24T06:55:20;15.90;99.90
21744;DHT22;11034;48.556;9.342;2023-04-24T06:57:48;15.30;99.90
21744;DHT22;11034;48.556;9.342;2023-04-24T07:00:16;15.20;99.90
21744;DHT22;11034;48.556;9.342;2023-04-24T07:02:44;15.20;99.90
21744;DHT22;11034;48.556;9.342;2023-04-24T07:05:13;14.80;99.90
21744;DHT22;11034;48.556;9.342;2023-04-24T07:07:41;14.80;99.90
21744;DHT22;11034;48.556;9.342;2023-04-24T07:10:11;15.00;99.90
21744;DHT22;11034;48.556;9.342;2023-04-24T07:12:39;14.70;99.90
21744;DHT22;11034;48.556;9.342;2023-04-24T07:15:08;13.70;99.90
21744;DHT22;11034;48.556;9.342;2023-04-24T07:17:37;12.90;99.90
21744;DHT22;11034;48.556;9.342;2023-04-24T07:20:10;12.60;99.90
21744;DHT22;11034;48.556;9.342;2023-04-24T07:22:39;12.40;99.90
21744;DHT22;11034;48.556;9.342;2023-04-24T07:25:08;12.60;99.90
21744;DHT22;11034;48.556;9.342;2023-04-24T07:27:37;13.20;99.90
21744;DHT22;11034;48.556;9.342;2023-04-24T07:30:06;13.50;99.90
21744;DHT22;11034;48.556;9.342;2023-04-24T07:32:34;13.40;99.90
21744;DHT22;11034;48.556;9.342;2023-04-24T07:35:03;13.00;99.90
21744;DHT22;11034;48.556;9.342;2023-04-24T07:37:31;12.50;99.90
21744;DHT22;11034;48.556;9.342;2023-04-24T07:39:59;11.90;99.90
21744;DHT22;11034;48.556;9.342;2023-04-24T07:42:27;11.20;99.90
21744;DHT22;11034;48.556;9.342;2023-04-24T07:44:58;10.60;99.90
21744;DHT22;11034;48.556;9.342;2023-04-24T07:47:27;11.10;99.90
21744;DHT22;11034;48.556;9.342;2023-04-24T07:49:55;11.90;99.90
21744;DHT22;11034;48.556;9.342;2023-04-24T07:52:23;12.50;99.90
21744;DHT22;11034;48.556;9.342;2023-04-24T07:54:51;12.40;99.90
21744;DHT22;11034;48.556;9.342;2023-04-24T07:57:26;11.80;99.90
21744;DHT22;11034;48.556;9.342;2023-04-24T07:59:54;11.50;99.90
21744;DHT22;11034;48.556;9.342;2023-04-24T08:02:23;11.20;99.90
21744;DHT22;11034;48.556;9.342;2023-04-24T08:04:54;11.80;99.90
21744;DHT22;11034;48.556;9.342;2023-04-24T08:07:25;12.20;99.90
21744;DHT22;11034;48.556;9.342;2023-04-24T08:09:53;11.60;99.90
21744;DHT22;11034;48.556;9.342;2023-04-24T08:12:21;11.70;99.90
21744;DHT22;11034;48.556;9.342;2023-04-24T08:14:49;11.60;99.90
21744;DHT22;11034;48.556;9.342;2023-04-24T08:17:17;11.60;99.90
21744;DHT22;11034;48.556;9.342;2023-04-24T08:19:46;11.70;99.90
21744;DHT22;11034;48.556;9.342;2023-04-24T08:22:15;11.90;99.90
21744;DHT22;11034;48.556;9.342;2023-04-24T08:24:43;11.60;99.90
21744;DHT22;11034;48.556;9.342;2023-04-24T08:27:11;11.90;99.90
21744;DHT22;11034;48.556;9.342;2023-04-24T08:29:39;12.00;99.90
21744;DHT22;11034;48.556;9.342;2023-04-24T08:32:07;12.10;99.90
21744;DHT22;11034;48.556;9.342;2023-04-24T08:34:38;12.20;99.90
21744;DHT22;11034;48.556;9.342;2023-04-24T08:37:07;12.10;99.90
21744;DHT22;11034;48.556;9.342;2023-04-24T08:39:36;11.90;99.90
21744;DHT22;11034;48.556;9.342;2023-04-24T08:42:05;11.60;99.90
21744;DHT22;11034;48.556;9.342;2023-04-24T08:44:36;11.40;99.90
21744;DHT22;11034;48.556;9.342;2023-04-24T08:47:04;11.20;99.90
21744;DHT22;11034;48.556;9.342;2023-04-24T08:49:33;11.20;99.90
21744;DHT22;11034;48.556;9.342;2023-04-24T08:52:02;10.90;99.90
21744;DHT22;11034;48.556;9.342;2023-04-24T08:54:32;11.20;99.90
21744;DHT22;11034;48.556;9.342;2023-04-24T08:57:02;11.20;99.90
21744;DHT22;11034;48.556;9.342;2023-04-24T08:59:31;11.00;99.90
21744;DHT22;11034;48.556;9.342;2023-04-24T09:02:00;10.90;99.90
21744;DHT22;11034;48.556;9.342;2023-04-24T09:04:29;10.90;99.90
21744;DHT22;11034;48.556;9.342;2023-04-24T09:06:58;10.70;99.90
21744;DHT22;11034;48.556;9.342;2023-04-24T09:09:29;11.00;99.90
21744;DHT22;11034;48.556;9.342;2023-04-24T09:11:59;11.10;99.90
21744;DHT22;11034;48.556;9.342;2023-04-24T09:14:28;11.30;99.90
21744;DHT22;11034;48.556;9.342;2023-04-24T09:16:58;11.60;99.90
21744;DHT22;11034;48.556;9.342;2023-04-24T09:19:26;12.00;99.90
21744;DHT22;11034;48.556;9.342;2023-04-24T09:21:54;12.20;99.90
21744;DHT22;11034;48.556;9.342;2023-04-24T09:24:23;12.40;99.90
21744;DHT22;11034;48.556;9.342;2023-04-24T09:26:56;12.50;99.90
21744;DHT22;11034;48.556;9.342;2023-04-24T09:29:26;12.60;99.90
21744;DHT22;11034;48.556;9.342;2023-04-24T09:31:55;12.40;99.90
21744;DHT22;11034;48.556;9.342;2023-04-24T09:34:23;12.40;99.90
21744;DHT22;11034;48.556;9.342;2023-04-24T09:36:52;12.30;99.90
21744;DHT22;11034;48.556;9.342;2023-04-24T09:39:21;12.30;99.90
21744;DHT22;11034;48.556;9.342;2023-04-24T09:41:50;12.30;99.90
21744;DHT22;11034;48.556;9.342;2023-04-24T09:44:20;12.50;99.90
21744;DHT22;11034;48.556;9.342;2023-04-24T09:46:52;12.70;99.90
21744;DHT22;11034;48.556;9.342;2023-04-24T09:49:23;12.60;99.90
21744;DHT22;11034;48.556;9.342;2023-04-24T09:51:52;12.50;99.90
21744;DHT22;11034;48.556;9.342;2023-04-24T09:54:21;12.40;99.90
21744;DHT22;11034;48.556;9.342;2023-04-24T09:56:50;12.20;99.90
21744;DHT22;11034;48.556;9.342;2023-04-24T09:59:19;12.30;99.90
21744;DHT22;11034;48.556;9.342;2023-04-24T10:01:48;12.00;99.90
21744;DHT22;11034;48.556;9.342;2023-04-24T10:04:18;11.90;99.90
21744;DHT22;11034;48.556;9.342;2023-04-24T10:06:48;12.00;99.90
21744;DHT22;11034;48.556;9.342;2023-04-24T10:09:17;11.90;99.90
21744;DHT22;11034;48.556;9.342;2023-04-24T10:11:46;11.90;99.90
21744;DHT22;11034;48.556;9.342;2023-04-24T10:14:16;11.90;99.90
21744;DHT22;11034;48.556;9.342;2023-04-24T10:16:45;12.10;99.90
21744;DHT22;11034;48.556;9.342;2023-04-24T10:19:15;12.20;99.90
21744;DHT22;11034;48.556;9.342;2023-04-24T10:21:46;12.30;99.90
21744;DHT22;11034;48.556;9.342;2023-04-24T10:24:15;12.30;99.90
21744;DHT22;11034;48.556;9.342;2023-04-24T10:26:44;12.20;99.90
21744;DHT22;11034;48.556;9.342;2023-04-24T10:29:13;12.00;99.90
21744;DHT22;11034;48.556;9.342;2023-04-24T10:31:42;11.80;99.90
21744;DHT22;11034;48.556;9.342;2023-04-24T10:34:13;11.80;99.90
21744;DHT22;11034;48.556;9.342;2023-04-24T10:36:48;11.80;99.90
21744;DHT22;11034;48.556;9.342;2023-04-24T10:39:17;12.10;99.90
21744;DHT22;11034;48.556;9.342;2023-04-24T10:41:53;12.10;99.90
21744;DHT22;11034;48.556;9.342;2023-04-24T10:44:24;12.30;99.90
21744;DHT22;11034;48.556;9.342;2023-04-24T10:46:54;12.50;99.90
21744;DHT22;11034;48.556;9.342;2023-04-24T10:49:28;12.70;99.90
21744;DHT22;11034;48.556;9.342;2023-04-24T10:52:02;12.50;99.90
21744;DHT22;11034;48.556;9.342;2023-04-24T10:54:35;12.30;99.90
21744;DHT22;11034;48.556;9.342;2023-04-24T10:57:26;12.20;99.90
21744;DHT22;11034;48.556;9.342;2023-04-24T11:00:14;12.50;99.90
21744;DHT22;11034;48.556;9.342;2023-04-24T11:02:46;12.50;99.90
21744;DHT22;11034;48.556;9.342;2023-04-24T11:05:18;12.70;99.90
21744;DHT22;11034;48.556;9.342;2023-04-24T11:08:13;12.70;99.90
21744;DHT22;11034;48.556;9.342;2023-04-24T11:10:47;12.40;99.90
21744;DHT22;11034;48.556;9.342;2023-04-24T11:13:23;12.40;99.90
21744;DHT22;11034;48.556;9.342;2023-04-24T11:16:14;12.50;99.90
21744;DHT22;11034;48.556;9.342;2023-04-24T11:18:43;12.50;99.90
21744;DHT22;11034;48.556;9.342;2023-04-24T11:21:18;12.40;99.90
21744;DHT22;11034;48.556;9.342;2023-04-24T11:23:47;12.00;99.90
21744;DHT22;11034;48.556;9.342;2023-04-24T11:26:18;12.00;99.90
21744;DHT22;11034;48.556;9.342;2023-04-24T11:28:47;12.00;99.90
21744;DHT22;11034;48.556;9.342;2023-04-24T11:31:35;12.10;99.90
21744;DHT22;11034;48.556;9.342;2023-04-24T11:34:11;12.10;99.90
21744;DHT22;11034;48.556;9.342;2023-04-24T11:36:39;12.30;99.90
21744;DHT22;11034;48.556;9.342;2023-04-24T11:39:09;12.20;99.90
21744;DHT22;11034;48.556;9.342;2023-04-24T11:41:38;12.00;99.90
21744;DHT22;11034;48.556;9.342;2023-04-24T11:44:07;11.90;99.90
21744;DHT22;11034;48.556;9.342;2023-04-24T11:46:36;11.80;99.90
21744;DHT22;11034;48.556;9.342;2023-04-24T11:49:07;11.70;99.90
21744;DHT22;11034;48.556;9.342;2023-04-24T11:51:35;11.60;99.90
21744;DHT22;11034;48.556;9.342;2023-04-24T11:54:21;11.50;99.90
21744;DHT22;11034;48.556;9.342;2023-04-24T11:56:49;11.60;99.90
21744;DHT22;11034;48.556;9.342;2023-04-24T11:59:17;11.60;99.90
21744;DHT22;11034;48.556;9.342;2023-04-24T12:01:45;11.70;99.90
21744;DHT22;11034;48.556;9.342;2023-04-24T12:04:14;11.40;99.90
21744;DHT22;11034;48.556;9.342;2023-04-24T12:07:00;11.10;99.90
21744;DHT22;11034;48.556;9.342;2023-04-24T12:09:40;11.20;99.90
21744;DHT22;11034;48.556;9.342;2023-04-24T12:12:10;11.30;99.90
21744;DHT22;11034;48.556;9.342;2023-04-24T12:14:52;11.40;99.90
21744;DHT22;11034;48.556;9.342;2023-04-24T12:17:25;11.60;99.90
21744;DHT22;11034;48.556;9.342;2023-04-24T12:19:58;11.90;99.90
21744;DHT22;11034;48.556;9.342;2023-04-24T12:22:28;12.10;99.90
21744;DHT22;11034;48.556;9.342;2023-04-24T12:24:59;12.20;99.90
21744;DHT22;11034;48.556;9.342;2023-04-24T12:27:30;12.40;99.90
21744;DHT22;11034;48.556;9.342;2023-04-24T12:29:59;12.20;99.90
21744;DHT22;11034;48.556;9.342;2023-04-24T12:32:28;12.10;99.90
21744;DHT22;11034;48.556;9.342;2023-04-24T12:34:58;11.90;99.90
21744;DHT22;11034;48.556;9.342;2023-04-24T12:37:32;11.80;99.90
21744;DHT22;11034;48.556;9.342;2023-04-24T12:40:06;11.60;99.90
21744;DHT22;11034;48.556;9.342;2023-04-24T12:42:36;11.60;99.90
21744;DHT22;11034;48.556;9.342;2023-04-24T12:45:05;11.50;99.90
21744;DHT22;11034;48.556;9.342;2023-04-24T12:47:35;11.10;99.90
21744;DHT22;11034;48.556;9.342;2023-04-24T12:50:04;11.10;99.90
21744;DHT22;11034;48.556;9.342;2023-04-24T12:52:32;11.30;99.90
21744;DHT22;11034;48.556;9.342;2023-04-24T12:55:01;11.10;99.90
21744;DHT22;11034;48.556;9.342;2023-04-24T12:57:31;11.10;99.90
21744;DHT22;11034;48.556;9.342;2023-04-24T12:59:59;11.00;99.90
21744;DHT22;11034;48.556;9.342;2023-04-24T13:02:28;10.90;99.90
21744;DHT22;11034;48.556;9.342;2023-04-24T13:04:57;11.10;99.90
21744;DHT22;11034;48.556;9.342;2023-04-24T13:07:26;11.50;99.90
21744;DHT22;11034;48.556;9.342;2023-04-24T13:09:55;11.60;99.90
21744;DHT22;11034;48.556;9.342;2023-04-24T13:12:23;11.70;99.90
21744;DHT22;11034;48.556;9.342;2023-04-24T13:14:54;12.00;99.90
21744;DHT22;11034;48.556;9.342;2023-04-24T13:17:22;12.40;99.90
21744;DHT22;11034;48.556;9.342;2023-04-24T13:19:51;12.70;99.90
21744;DHT22;11034;48.556;9.342;2023-04-24T13:22:20;12.70;99.90
21744;DHT22;11034;48.556;9.342;2023-04-24T13:24:48;12.50;99.90
21744;DHT22;11034;48.556;9.342;2023-04-24T13:27:16;12.40;99.90
21744;DHT22;11034;48.556;9.342;2023-04-24T13:29:44;12.20;99.90
21744;DHT22;11034;48.556;9.342;2023-04-24T13:32:14;12.00;99.90
21744;DHT22;11034;48.556;9.342;2023-04-24T13:34:42;12.10;99.90
21744;DHT22;11034;48.556;9.342;2023-04-24T13:37:10;12.20;99.90
21744;DHT22;11034;48.556;9.342;2023-04-24T13:39:40;12.10;99.90
21744;DHT22;11034;48.556;9.342;2023-04-24T13:42:09;12.20;99.90
21744;DHT22;11034;48.556;9.342;2023-04-24T13:44:38;12.10;99.90
21744;DHT22;11034;48.556;9.342;2023-04-24T13:47:06;12.20;99.90
21744;DHT22;11034;48.556;9.342;2023-04-24T13:49:35;12.10;99.90
21744;DHT22;11034;48.556;9.342;2023-04-24T13:52:03;12.00;99.90
21744;DHT22;11034;48.556;9.342;2023-04-24T13:54:31;12.10;99.90
21744;DHT22;11034;48.556;9.342;2023-04-24T13:57:00;12.00;99.90
21744;DHT22;11034;48.556;9.342;2023-04-24T13:59:29;11.90;99.90
21744;DHT22;11034;48.556;9.342;2023-04-24T14:01:57;11.60;99.90
21744;DHT22;11034;48.556;9.342;2023-04-24T14:04:25;11.60;99.90
21744;DHT22;11034;48.556;9.342;2023-04-24T14:06:55;11.70;99.90
21744;DHT22;11034;48.556;9.342;2023-04-24T14:09:23;11.80;99.90
21744;DHT22;11034;48.556;9.342;2023-04-24T14:11:51;11.70;99.90
21744;DHT22;11034;48.556;9.342;2023-04-24T14:14:19;11.80;99.90
21744;DHT22;11034;48.556;9.342;2023-04-24T14:16:47;11.80;99.90
21744;DHT22;11034;48.556;9.342;2023-04-24T14:19:16;11.50;99.90
21744;DHT22;11034;48.556;9.342;2023-04-24T14:21:44;11.40;99.90
21744;DHT22;11034;48.556;9.342;2023-04-24T14:24:13;11.40;99.90
21744;DHT22;11034;48.556;9.342;2023-04-24T14:26:41;11.40;99.90
21744;DHT22;11034;48.556;9.342;2023-04-24T14:29:09;11.30;99.90
21744;DHT22;11034;48.556;9.342;2023-04-24T14:31:41;11.30;99.90
21744;DHT22;11034;48.556;9.342;2023-04-24T14:34:09;11.30;99.90
21744;DHT22;11034;48.556;9.342;2023-04-24T14:36:37;11.40;99.90
21744;DHT22;11034;48.556;9.342;2023-04-24T14:39:06;11.40;99.90
21744;DHT22;11034;48.556;9.342;2023-04-24T14:41:35;11.30;99.90
21744;DHT22;11034;48.556;9.342;2023-04-24T14:44:06;11.20;99.90
21744;DHT22;11034;48.556;9.342;2023-04-24T14:46:34;11.30;99.90
21744;DHT22;11034;48.556;9.342;2023-04-24T14:49:02;11.30;99.90
21744;DHT22;11034;48.556;9.342;2023-04-24T14:51:30;11.30;99.90
21744;DHT22;11034;48.556;9.342;2023-04-24T14:53:58;11.30;99.90
21744;DHT22;11034;48.556;9.342;2023-04-24T14:56:26;11.20;99.90
21744;DHT22;11034;48.556;9.342;2023-04-24T14:58:56;11.20;99.90
21744;DHT22;11034;48.556;9.342;2023-04-24T15:01:24;11.30;99.90
21744;DHT22;11034;48.556;9.342;2023-04-24T15:03:52;11.40;99.90
21744;DHT22;11034;48.556;9.342;2023-04-24T15:06:21;11.60;99.90
21744;DHT22;11034;48.556;9.342;2023-04-24T15:08:49;11.60;99.90
21744;DHT22;11034;48.556;9.342;2023-04-24T15:11:17;11.70;99.90
21744;DHT22;11034;48.556;9.342;2023-04-24T15:13:45;11.60;99.90
21744;DHT22;11034;48.556;9.342;2023-04-24T15:16:15;11.80;99.90
21744;DHT22;11034;48.556;9.342;2023-04-24T15:18:43;11.80;99.90
21744;DHT22;11034;48.556;9.342;2023-04-24T15:21:11;11.90;99.90
21744;DHT22;11034;48.556;9.342;2023-04-24T15:23:39;11.70;99.90
21744;DHT22;11034;48.556;9.342;2023-04-24T15:26:07;11.50;99.90
21744;DHT22;11034;48.556;9.342;2023-04-24T15:28:35;11.30;99.90
21744;DHT22;11034;48.556;9.342;2023-04-24T15:31:03;11.30;99.90
21744;DHT22;11034;48.556;9.342;2023-04-24T15:33:33;11.40;99.90
21744;DHT22;11034;48.556;9.342;2023-04-24T15:36:01;11.40;99.90
21744;DHT22;11034;48.556;9.342;2023-04-24T15:38:29;11.50;99.90
21744;DHT22;11034;48.556;9.342;2023-04-24T15:40:57;11.30;99.90
21744;DHT22;11034;48.556;9.342;2023-04-24T15:43:25;11.30;99.90
21744;DHT22;11034;48.556;9.342;2023-04-24T15:45:53;11.20;99.90
21744;DHT22;11034;48.556;9.342;2023-04-24T15:48:21;11.30;99.90